Time;durP1;ratioP1;P1;durP2;ratioP2;P2;SDS_P1;SDS_P2;PMS_P1;PMS_P2;Temp;Humidity;BMP_temperature;BMP_pressure;BME280_temperature;BME280_humidity;BME280_pressure;Samples;Min_cycle;Max_cycle;Signal;HPM_P1;HPM_P2
2022/03/14 00:01:06;;;;;;;8.40;6.35;;;8.80;82.90;;;;;;5037505;28;20057;-91
2022/03/14 00:03:55;;;;;;;8.45;6.32;;;8.80;82.90;;;;;;5035541;28;20498;-90
2022/03/14 00:06:22;;;;;;;9.27;6.20;;;8.80;82.90;;;;;;5017472;28;20525;-90
2022/03/14 00:08:50;;;;;;;12.85;6.90;;;8.70;82.90;;;;;;5037978;28;20116;-89
2022/03/14 00:11:17;;;;;;;9.00;6.10;;;8.70;82.90;;;;;;5038109;28;20053;-90
2022/03/14 00:13:46;;;;;;;9.25;6.68;;;8.70;83.00;;;;;;5036833;28;20045;-90
2022/03/14 00:16:24;;;;;;;10.30;6.45;;;8.70;82.90;;;;;;5036696;28;20132;-91
2022/03/14 00:18:53;;;;;;;11.80;6.85;;;8.70;83.00;;;;;;5037234;28;20072;-91
2022/03/14 00:21:25;;;;;;;8.30;7.20;;;8.70;83.00;;;;;;5032037;28;20045;-92
2022/03/14 00:23:54;;;;;;;10.45;7.18;;;8.70;83.00;;;;;;5037287;28;20057;-91
2022/03/14 00:26:22;;;;;;;9.07;6.85;;;8.70;83.00;;;;;;5038418;28;20041;-91
2022/03/14 00:28:49;;;;;;;9.57;7.20;;;8.60;83.00;;;;;;5036453;28;20061;-91
2022/03/14 00:31:16;;;;;;;9.18;7.32;;;8.70;83.00;;;;;;5037019;28;20449;-91
2022/03/14 00:33:43;;;;;;;12.18;7.22;;;8.60;83.00;;;;;;5033892;28;20402;-90
2022/03/14 00:36:11;;;;;;;9.88;7.30;;;8.60;83.00;;;;;;5033149;28;20041;-90
2022/03/14 00:38:39;;;;;;;10.90;7.85;;;8.60;83.00;;;;;;5038702;28;20489;-90
2022/03/14 00:41:08;;;;;;;12.88;7.57;;;8.60;83.00;;;;;;5036850;28;20049;-91
2022/03/14 00:43:35;;;;;;;10.55;7.53;;;8.60;83.00;;;;;;5036325;28;20502;-90
2022/03/14 00:46:02;;;;;;;11.85;7.93;;;8.60;83.00;;;;;;5037242;28;20559;-91
2022/03/14 00:48:32;;;;;;;11.57;8.32;;;8.60;83.00;;;;;;5029541;28;20108;-91
2022/03/14 00:50:59;;;;;;;11.25;8.23;;;8.60;83.00;;;;;;5045476;28;20521;-90
2022/03/14 00:53:27;;;;;;;12.27;7.80;;;8.50;83.10;;;;;;5038652;28;20537;-91
2022/03/14 00:55:54;;;;;;;11.60;8.18;;;8.60;83.10;;;;;;5045582;28;20055;-90
2022/03/14 00:58:21;;;;;;;12.68;7.68;;;8.50;83.10;;;;;;5042058;28;20107;-91
2022/03/14 01:00:49;;;;;;;15.48;8.50;;;8.50;83.10;;;;;;5036398;28;20099;-90
2022/03/14 01:03:16;;;;;;;11.43;7.85;;;8.50;83.10;;;;;;5016625;28;20048;-90
2022/03/14 01:05:43;;;;;;;13.13;8.48;;;8.50;83.10;;;;;;5045526;28;20057;-90
2022/03/14 01:08:11;;;;;;;11.02;8.02;;;8.50;83.10;;;;;;5036492;28;20050;-90
2022/03/14 01:10:38;;;;;;;10.23;8.00;;;8.50;83.10;;;;;;5035013;28;20050;-90
2022/03/14 01:13:05;;;;;;;12.65;7.82;;;8.50;83.10;;;;;;5035959;28;20048;-90
2022/03/14 01:15:34;;;;;;;13.05;7.80;;;8.50;83.10;;;;;;5033994;28;20099;-89
2022/03/14 01:18:01;;;;;;;9.93;7.15;;;8.40;83.10;;;;;;5034586;28;20136;-91
2022/03/14 01:20:28;;;;;;;10.93;7.38;;;8.40;83.10;;;;;;5036215;28;20053;-91
2022/03/14 01:22:55;;;;;;;12.85;7.38;;;8.50;83.10;;;;;;5045700;28;20052;-90
2022/03/14 01:25:26;;;;;;;12.73;7.75;;;8.40;83.10;;;;;;5042829;28;20465;-90
2022/03/14 01:27:53;;;;;;;13.10;7.70;;;8.40;83.10;;;;;;5026171;28;20410;-91
2022/03/14 01:30:21;;;;;;;14.00;7.55;;;8.40;83.10;;;;;;5045500;28;20053;-91
2022/03/14 01:32:48;;;;;;;15.40;8.15;;;8.40;83.10;;;;;;5036767;28;20046;-91
2022/03/14 01:35:18;;;;;;;11.68;6.50;;;8.40;83.10;;;;;;5034086;28;20127;-90
2022/03/14 01:37:49;;;;;;;14.15;7.15;;;8.40;83.10;;;;;;5034542;28;20049;-91
2022/03/14 01:40:17;;;;;;;13.25;6.82;;;8.40;83.10;;;;;;5035250;28;20410;-91
2022/03/14 01:42:44;;;;;;;10.02;6.35;;;8.40;83.20;;;;;;5035065;28;20053;-89
2022/03/14 01:45:12;;;;;;;12.80;6.70;;;8.40;83.20;;;;;;5031872;28;20046;-90
2022/03/14 01:47:41;;;;;;;11.32;5.95;;;8.40;83.20;;;;;;5037692;28;20461;-89
2022/03/14 01:50:09;;;;;;;12.70;6.40;;;8.40;83.20;;;;;;5035457;28;20053;-90
2022/03/14 01:52:36;;;;;;;12.07;6.68;;;8.40;83.20;;;;;;5035540;28;20045;-90
2022/03/14 01:55:04;;;;;;;10.75;6.30;;;8.40;83.20;;;;;;5033175;28;20421;-91
2022/03/14 01:57:33;;;;;;;13.65;6.47;;;8.40;83.20;;;;;;5031060;28;20053;-91
2022/03/14 02:00:00;;;;;;;12.35;6.05;;;8.40;83.20;;;;;;5033133;28;20050;-91
2022/03/14 02:02:27;;;;;;;11.57;5.28;;;8.40;83.20;;;;;;5035346;28;20049;-91
2022/03/14 02:04:54;;;;;;;12.73;5.38;;;8.40;83.20;;;;;;5035493;28;20073;-90
2022/03/14 02:07:21;;;;;;;16.30;5.88;;;8.40;83.20;;;;;;5035356;28;20077;-90
2022/03/14 02:09:48;;;;;;;14.55;5.22;;;8.40;83.20;;;;;;5033854;28;20464;-91
2022/03/14 02:12:15;;;;;;;14.55;5.50;;;8.30;83.10;;;;;;5031007;28;20049;-91
2022/03/14 02:14:42;;;;;;;9.73;5.28;;;8.30;83.10;;;;;;5042897;28;20452;-91
2022/03/14 02:17:12;;;;;;;10.45;5.25;;;8.30;83.10;;;;;;5035482;28;20472;-91
2022/03/14 02:19:39;;;;;;;9.90;4.88;;;8.30;83.10;;;;;;5033414;28;20049;-91
2022/03/14 02:22:12;;;;;;;10.65;5.32;;;8.30;83.10;;;;;;5033126;28;20049;-91
2022/03/14 02:24:41;;;;;;;11.18;5.45;;;8.30;83.10;;;;;;5046175;28;20079;-91
2022/03/14 02:27:08;;;;;;;14.27;5.22;;;8.30;83.10;;;;;;5031549;28;20057;-91
2022/03/14 02:29:35;;;;;;;13.60;5.38;;;8.30;83.00;;;;;;5036761;28;20049;-90
2022/03/14 02:32:03;;;;;;;11.48;4.47;;;8.30;83.00;;;;;;5035057;28;20054;-92
2022/03/14 02:34:30;;;;;;;12.15;4.95;;;8.20;83.00;;;;;;5034989;28;20041;-90
2022/03/14 02:36:56;;;;;;;11.43;5.07;;;8.30;83.00;;;;;;5034878;28;20053;-91
2022/03/14 02:39:24;;;;;;;12.02;5.18;;;8.30;83.00;;;;;;5030882;28;20071;-90
2022/03/14 02:41:51;;;;;;;9.63;4.65;;;8.20;83.00;;;;;;5034997;28;20049;-92
2022/03/14 02:44:18;;;;;;;11.65;5.07;;;8.20;83.00;;;;;;5033535;28;20061;-91
2022/03/14 02:46:45;;;;;;;11.68;4.43;;;8.20;83.00;;;;;;5038674;28;20049;-90
2022/03/14 02:49:12;;;;;;;10.15;4.32;;;8.20;82.90;;;;;;5041581;28;20506;-91
2022/03/14 02:51:39;;;;;;;11.13;4.40;;;8.20;82.90;;;;;;5033508;28;20110;-90
2022/03/14 02:54:08;;;;;;;8.73;4.45;;;8.20;82.90;;;;;;5031050;28;20064;-91
2022/03/14 02:56:39;;;;;;;9.32;4.55;;;8.20;82.90;;;;;;5036837;28;20050;-91
2022/03/14 02:59:07;;;;;;;10.05;4.45;;;8.20;82.90;;;;;;5034741;28;20045;-92
2022/03/14 03:01:35;;;;;;;11.30;4.60;;;8.20;82.90;;;;;;5034596;28;20103;-90
2022/03/14 03:04:04;;;;;;;9.95;3.78;;;8.20;82.90;;;;;;5033499;28;20055;-90
2022/03/14 03:06:32;;;;;;;12.57;4.40;;;8.20;82.80;;;;;;5031283;28;20045;-92
2022/03/14 03:09:03;;;;;;;15.65;4.15;;;8.10;82.80;;;;;;5032479;28;20045;-91
2022/03/14 03:11:32;;;;;;;12.18;4.25;;;8.10;82.80;;;;;;5035080;28;20049;-90
2022/03/14 03:14:00;;;;;;;11.98;4.22;;;8.10;82.80;;;;;;5033775;28;20049;-90
2022/03/14 03:16:27;;;;;;;9.27;4.30;;;8.10;82.70;;;;;;5033115;28;20053;-91
2022/03/14 03:18:55;;;;;;;12.48;4.50;;;8.10;82.70;;;;;;5032379;28;20110;-91
2022/03/14 03:21:22;;;;;;;10.80;3.97;;;8.00;82.70;;;;;;5029733;28;20045;-92
2022/03/14 03:23:49;;;;;;;8.43;4.25;;;8.00;82.70;;;;;;5035227;28;20099;-90
2022/03/14 03:26:17;;;;;;;9.75;4.18;;;8.00;82.70;;;;;;5035223;28;20054;-91
2022/03/14 03:28:43;;;;;;;11.48;4.15;;;8.00;82.60;;;;;;5040831;28;20083;-92
2022/03/14 03:31:13;;;;;;;11.68;4.18;;;8.00;82.60;;;;;;5041137;28;20049;-92
2022/03/14 03:33:40;;;;;;;10.25;4.55;;;8.00;82.60;;;;;;5031834;28;20053;-91
2022/03/14 03:36:08;;;;;;;10.60;4.20;;;8.00;82.60;;;;;;5030779;28;20046;-91
2022/03/14 03:38:36;;;;;;;9.88;4.30;;;8.00;82.60;;;;;;5036397;28;20498;-91
2022/03/14 03:41:03;;;;;;;13.25;4.45;;;8.00;82.60;;;;;;5034287;28;20088;-91
2022/03/14 03:43:30;;;;;;;10.40;4.65;;;8.00;82.60;;;;;;5032790;28;20099;-91
2022/03/14 03:45:58;;;;;;;14.35;4.68;;;8.00;82.60;;;;;;5033264;28;20056;-91
2022/03/14 03:48:25;;;;;;;12.05;4.47;;;8.00;82.60;;;;;;5029550;28;20049;-91
2022/03/14 03:50:52;;;;;;;10.32;4.50;;;7.90;82.60;;;;;;5033464;28;20099;-91
2022/03/14 03:53:19;;;;;;;11.80;4.72;;;7.90;82.60;;;;;;5036863;28;20049;-93
2022/03/14 03:55:46;;;;;;;13.40;4.28;;;7.90;82.60;;;;;;5037911;28;20050;-90
2022/03/14 03:58:13;;;;;;;11.43;4.88;;;7.90;82.60;;;;;;5040014;28;20520;-91
2022/03/14 04:00:41;;;;;;;12.63;4.53;;;7.90;82.60;;;;;;5050138;28;20053;-90
2022/03/14 04:03:08;;;;;;;11.45;4.97;;;7.90;82.60;;;;;;5033122;28;20058;-90
2022/03/14 04:05:39;;;;;;;12.63;5.00;;;7.90;82.50;;;;;;5053370;28;20044;-91
2022/03/14 04:08:10;;;;;;;12.02;4.95;;;7.90;82.50;;;;;;5037991;28;20087;-90
2022/03/14 04:10:38;;;;;;;13.90;4.60;;;7.90;82.50;;;;;;5037609;28;20045;-92
2022/03/14 04:13:06;;;;;;;15.60;4.38;;;7.90;82.50;;;;;;5037541;28;20103;-90
2022/03/14 04:15:50;;;;;;;9.55;4.35;;;7.90;82.50;;;;;;5034303;28;20037;-90
2022/03/14 04:18:24;;;;;;;9.43;4.15;;;7.90;82.50;;;;;;5017795;28;20050;-90
2022/03/14 04:20:52;;;;;;;12.35;4.68;;;7.90;82.50;;;;;;5035607;28;20080;-90
2022/03/14 04:23:20;;;;;;;10.50;4.68;;;7.80;82.50;;;;;;5050706;28;20493;-91
2022/03/14 04:25:47;;;;;;;11.85;4.63;;;7.90;82.40;;;;;;5038909;28;20057;-91
2022/03/14 04:28:15;;;;;;;15.57;4.57;;;7.80;82.40;;;;;;5037207;28;20045;-91
2022/03/14 04:30:43;;;;;;;12.80;5.05;;;7.90;82.40;;;;;;5028045;28;20455;-90
2022/03/14 04:33:10;;;;;;;10.55;4.47;;;7.80;82.30;;;;;;5048273;28;20060;-91
2022/03/14 04:35:38;;;;;;;11.35;4.63;;;7.80;82.30;;;;;;5038835;28;20494;-90
2022/03/14 04:38:07;;;;;;;14.15;4.55;;;7.80;82.30;;;;;;5036903;28;20103;-90
2022/03/14 04:40:35;;;;;;;8.95;4.82;;;7.80;82.20;;;;;;5033380;28;20072;-91
2022/03/14 04:43:11;;;;;;;10.05;4.97;;;7.80;82.20;;;;;;5045858;28;20063;-90
2022/03/14 04:45:40;;;;;;;11.18;4.32;;;7.70;82.20;;;;;;5034666;28;20045;-90
2022/03/14 04:48:10;;;;;;;13.05;4.38;;;7.70;82.10;;;;;;5032879;28;20049;-92
2022/03/14 04:50:37;;;;;;;13.25;4.32;;;7.70;82.10;;;;;;5036847;28;20414;-92
2022/03/14 04:53:06;;;;;;;9.13;4.22;;;7.60;82.10;;;;;;5045165;28;20056;-91
2022/03/14 04:55:34;;;;;;;10.35;4.25;;;7.60;82.00;;;;;;5040619;28;20140;-91
2022/03/14 04:58:05;;;;;;;12.10;4.50;;;7.60;82.00;;;;;;5034153;28;20059;-90
2022/03/14 05:00:34;;;;;;;9.38;3.88;;;7.60;82.00;;;;;;5031554;28;20064;-92
2022/03/14 05:03:03;;;;;;;9.02;4.05;;;7.60;82.00;;;;;;5032592;28;20445;-90
2022/03/14 05:05:30;;;;;;;11.57;3.67;;;7.60;82.00;;;;;;5038828;28;20453;-92
2022/03/14 05:07:58;;;;;;;9.77;3.50;;;7.50;81.90;;;;;;5036674;28;20049;-91
2022/03/14 05:10:25;;;;;;;10.95;4.25;;;7.50;81.90;;;;;;5035722;28;20498;-91
2022/03/14 05:12:52;;;;;;;11.27;3.50;;;7.50;81.90;;;;;;5035123;28;20509;-91
2022/03/14 05:15:19;;;;;;;8.85;3.60;;;7.40;81.90;;;;;;5031249;28;20587;-91
2022/03/14 05:17:47;;;;;;;12.38;3.50;;;7.40;81.90;;;;;;5037090;28;20123;-91
2022/03/14 05:20:14;;;;;;;9.07;2.97;;;7.40;81.90;;;;;;5035849;28;20060;-92
2022/03/14 05:22:49;;;;;;;11.38;3.58;;;7.40;81.90;;;;;;5035986;28;20398;-90
2022/03/14 05:25:23;;;;;;;11.13;3.72;;;7.40;82.00;;;;;;5039700;28;20053;-92
2022/03/14 05:27:54;;;;;;;11.27;3.00;;;7.40;82.00;;;;;;5046108;28;20049;-92
2022/03/14 05:30:23;;;;;;;9.43;3.13;;;7.40;82.00;;;;;;5029504;28;20058;-91
2022/03/14 05:32:50;;;;;;;10.60;3.20;;;7.40;82.00;;;;;;5034974;28;20068;-91
2022/03/14 05:35:18;;;;;;;9.27;3.38;;;7.40;82.10;;;;;;5035622;28;20049;-91
2022/03/14 05:37:47;;;;;;;8.35;2.92;;;7.40;82.10;;;;;;5034460;28;20049;-91
2022/03/14 05:40:17;;;;;;;9.15;3.15;;;7.40;82.10;;;;;;5034625;28;20072;-91
2022/03/14 05:42:45;;;;;;;12.70;3.15;;;7.40;82.10;;;;;;5034006;28;20497;-91
2022/03/14 05:45:13;;;;;;;13.63;3.20;;;7.40;82.10;;;;;;5031333;28;20048;-91
2022/03/14 05:47:40;;;;;;;12.10;3.40;;;7.40;82.20;;;;;;5047054;28;20076;-92
2022/03/14 05:50:08;;;;;;;11.15;3.42;;;7.40;82.20;;;;;;5035774;28;20060;-91
2022/03/14 05:52:35;;;;;;;9.93;3.00;;;7.40;82.20;;;;;;5034514;28;20056;-91
2022/03/14 05:55:03;;;;;;;9.45;3.15;;;7.40;82.20;;;;;;5035653;28;20045;-91
2022/03/14 05:57:30;;;;;;;9.93;2.70;;;7.40;82.10;;;;;;5029988;28;20053;-91
2022/03/14 05:59:57;;;;;;;7.88;2.80;;;7.40;82.10;;;;;;5031984;28;20049;-92
2022/03/14 06:02:25;;;;;;;11.48;3.00;;;7.40;82.10;;;;;;5048961;28;20056;-90
2022/03/14 06:04:54;;;;;;;10.30;3.20;;;7.40;82.10;;;;;;5040498;28;20084;-91
2022/03/14 06:07:21;;;;;;;9.30;3.17;;;7.40;82.00;;;;;;5042306;28;20099;-91
2022/03/14 06:09:49;;;;;;;11.10;2.92;;;7.40;82.00;;;;;;5044381;28;20057;-91
2022/03/14 06:12:23;;;;;;;9.32;3.33;;;7.40;82.00;;;;;;5013566;28;20052;-91
2022/03/14 06:14:53;;;;;;;10.57;3.03;;;7.30;81.90;;;;;;5045137;28;20072;-92
2022/03/14 06:17:20;;;;;;;11.43;3.13;;;7.40;81.90;;;;;;5035766;28;20052;-90
2022/03/14 06:19:48;;;;;;;12.45;3.20;;;7.30;81.90;;;;;;5034951;28;20053;-90
2022/03/14 06:22:16;;;;;;;10.85;3.30;;;7.30;81.90;;;;;;5034565;28;20506;-90
2022/03/14 06:24:44;;;;;;;10.20;3.05;;;7.30;81.90;;;;;;5027369;28;20045;-90
2022/03/14 06:27:11;;;;;;;11.77;3.15;;;7.30;81.90;;;;;;5033236;28;20053;-91
2022/03/14 06:29:38;;;;;;;9.70;3.08;;;7.20;81.80;;;;;;5027592;28;20053;-91
2022/03/14 06:32:05;;;;;;;12.48;3.20;;;7.30;81.80;;;;;;5017111;28;20470;-90
2022/03/14 06:34:34;;;;;;;7.88;2.92;;;7.20;81.80;;;;;;5016903;28;20046;-91
2022/03/14 06:37:01;;;;;;;9.90;3.38;;;7.20;81.70;;;;;;5048263;28;20574;-91
2022/03/14 06:39:28;;;;;;;8.25;3.25;;;7.20;81.70;;;;;;5014415;28;20049;-90
2022/03/14 06:41:56;;;;;;;9.07;2.88;;;7.20;81.70;;;;;;5014703;28;20061;-90
2022/03/14 06:44:26;;;;;;;7.72;2.90;;;7.20;81.70;;;;;;5026998;28;20104;-90
2022/03/14 06:46:55;;;;;;;10.25;3.88;;;7.20;81.70;;;;;;5017870;28;20093;-90
2022/03/14 06:49:24;;;;;;;7.13;3.05;;;7.20;81.70;;;;;;5016699;28;20049;-89
2022/03/14 06:51:51;;;;;;;8.20;3.10;;;7.10;81.70;;;;;;5016456;28;20493;-89
2022/03/14 06:54:18;;;;;;;10.93;3.53;;;7.10;81.60;;;;;;5012342;28;20468;-90
2022/03/14 06:56:47;;;;;;;6.28;3.00;;;7.20;81.70;;;;;;5032136;28;20048;-89
2022/03/14 06:59:14;;;;;;;10.02;3.22;;;7.20;81.70;;;;;;5025461;28;20045;-91
2022/03/14 07:01:41;;;;;;;9.05;3.08;;;7.20;81.70;;;;;;5020339;28;20054;-90
2022/03/14 07:04:08;;;;;;;13.20;3.33;;;7.10;81.70;;;;;;5016654;28;20049;-91
2022/03/14 07:06:35;;;;;;;10.65;3.20;;;7.10;81.80;;;;;;5013869;28;20045;-89
2022/03/14 07:09:03;;;;;;;8.00;2.63;;;7.10;81.80;;;;;;5027489;28;20053;-89
2022/03/14 07:11:30;;;;;;;8.63;3.10;;;7.10;81.80;;;;;;5027330;28;20057;-90
2022/03/14 07:13:57;;;;;;;11.02;3.53;;;7.10;81.80;;;;;;5017861;28;20112;-91
2022/03/14 07:16:24;;;;;;;7.88;3.28;;;7.10;81.90;;;;;;5016195;28;20112;-90
2022/03/14 07:18:51;;;;;;;9.98;3.28;;;7.10;81.90;;;;;;5018390;28;20057;-89
2022/03/14 07:21:18;;;;;;;9.60;3.10;;;7.10;81.90;;;;;;5012718;28;20050;-90
2022/03/14 07:23:45;;;;;;;11.55;2.78;;;7.20;81.90;;;;;;5028430;28;20049;-90
2022/03/14 07:26:12;;;;;;;10.50;3.10;;;7.10;81.90;;;;;;5015047;28;20092;-90
2022/03/14 07:28:39;;;;;;;10.45;3.22;;;7.10;81.90;;;;;;5019376;28;20498;-89
2022/03/14 07:31:06;;;;;;;7.93;2.80;;;7.10;81.90;;;;;;5018801;28;20103;-90
2022/03/14 07:33:33;;;;;;;9.50;3.35;;;7.20;81.90;;;;;;5049030;28;20049;-89
2022/03/14 07:36:00;;;;;;;7.50;3.10;;;7.10;82.00;;;;;;5031845;28;20053;-91
2022/03/14 07:38:27;;;;;;;11.65;3.20;;;7.20;82.00;;;;;;5019810;28;20050;-89
2022/03/14 07:40:54;;;;;;;9.55;2.83;;;7.10;82.00;;;;;;5024444;28;20053;-90
2022/03/14 07:43:21;;;;;;;7.30;2.97;;;7.20;82.00;;;;;;5026166;28;20092;-90
2022/03/14 07:45:48;;;;;;;10.63;2.90;;;7.20;82.00;;;;;;5051648;28;20088;-89
2022/03/14 07:48:15;;;;;;;9.27;3.00;;;7.20;82.10;;;;;;5015926;28;20068;-91
2022/03/14 07:50:42;;;;;;;10.75;3.20;;;7.20;82.10;;;;;;5030826;28;20041;-90
2022/03/14 07:53:09;;;;;;;7.82;2.63;;;7.20;82.10;;;;;;5032520;28;20115;-90
2022/03/14 07:55:36;;;;;;;7.78;2.90;;;7.20;82.10;;;;;;5024525;28;20050;-90
2022/03/14 07:58:03;;;;;;;9.52;3.00;;;7.20;82.20;;;;;;5019432;28;20053;-89
2022/03/14 08:00:30;;;;;;;7.05;3.22;;;7.20;82.20;;;;;;5017199;28;20042;-89
2022/03/14 08:02:57;;;;;;;8.38;2.70;;;7.20;82.20;;;;;;5016936;28;20045;-90
2022/03/14 08:05:26;;;;;;;8.88;2.78;;;7.20;82.30;;;;;;5019225;28;20046;-91
2022/03/14 08:07:54;;;;;;;5.90;2.67;;;7.20;82.30;;;;;;5018287;28;20061;-89
2022/03/14 08:10:22;;;;;;;7.38;2.88;;;7.20;82.40;;;;;;5020943;28;20041;-91
2022/03/14 08:12:55;;;;;;;10.48;3.30;;;7.30;82.40;;;;;;5028329;28;20053;-90
2022/03/14 08:15:21;;;;;;;7.45;3.03;;;7.30;82.40;;;;;;5030069;28;20046;-90
2022/03/14 08:17:50;;;;;;;8.75;3.03;;;7.30;82.50;;;;;;5018217;28;20143;-90
2022/03/14 08:20:17;;;;;;;13.98;3.40;;;7.30;82.50;;;;;;5018607;28;20458;-90
2022/03/14 08:22:45;;;;;;;7.90;3.00;;;7.40;82.50;;;;;;5019103;28;20050;-91
2022/03/14 08:25:12;;;;;;;7.75;3.20;;;7.40;82.60;;;;;;5019377;28;20465;-90
2022/03/14 08:27:40;;;;;;;7.55;3.13;;;7.40;82.60;;;;;;5029883;28;20053;-90
2022/03/14 08:30:08;;;;;;;10.18;3.30;;;7.40;82.70;;;;;;5015904;28;20632;-90
2022/03/14 08:32:36;;;;;;;9.60;3.13;;;7.40;82.70;;;;;;5018749;28;20050;-89
2022/03/14 08:35:07;;;;;;;8.90;2.88;;;7.50;82.70;;;;;;5026813;28;20064;-91
2022/03/14 08:37:42;;;;;;;8.90;2.72;;;7.50;82.70;;;;;;5027640;28;20050;-90
2022/03/14 08:40:13;;;;;;;7.53;2.80;;;7.50;82.80;;;;;;5022945;28;20050;-92
2022/03/14 08:42:41;;;;;;;11.35;3.30;;;7.60;82.80;;;;;;5029784;28;20065;-90
2022/03/14 08:45:09;;;;;;;8.38;3.00;;;7.60;82.90;;;;;;5013983;28;20081;-90
2022/03/14 08:47:37;;;;;;;14.15;3.65;;;7.60;82.90;;;;;;5018628;28;20050;-91
2022/03/14 08:50:07;;;;;;;11.10;3.22;;;7.70;83.00;;;;;;5029418;28;20049;-92
2022/03/14 08:52:35;;;;;;;9.68;3.30;;;7.80;83.00;;;;;;5024668;28;20046;-92
2022/03/14 08:55:05;;;;;;;17.73;3.30;;;7.90;83.10;;;;;;5050399;28;20128;-92
2022/03/14 08:57:38;;;;;;;10.60;3.13;;;7.90;83.10;;;;;;5017156;28;20049;-89
2022/03/14 09:00:07;;;;;;;7.60;3.00;;;7.90;83.20;;;;;;5015559;28;20054;-90
2022/03/14 09:02:34;;;;;;;9.45;3.22;;;8.00;83.20;;;;;;5029559;28;20054;-90
2022/03/14 09:05:01;;;;;;;13.07;3.15;;;8.10;83.30;;;;;;5021724;28;20050;-91
2022/03/14 09:07:30;;;;;;;14.82;3.42;;;8.20;83.30;;;;;;5013664;28;20510;-92
2022/03/14 09:10:08;;;;;;;14.82;3.25;;;8.30;83.30;;;;;;5019941;28;20049;-91
2022/03/14 09:12:38;;;;;;;12.50;3.35;;;8.40;83.40;;;;;;5030069;28;20045;-92
2022/03/14 09:15:07;;;;;;;8.05;3.10;;;8.40;83.40;;;;;;5030336;28;20060;-92
2022/03/14 09:17:44;;;;;;;12.38;3.60;;;8.50;83.30;;;;;;5018382;28;20050;-92
2022/03/14 09:20:12;;;;;;;10.75;3.58;;;8.60;83.30;;;;;;5033211;28;20060;-93
2022/03/14 09:22:39;;;;;;;7.13;3.20;;;8.70;83.10;;;;;;5034641;28;20053;-92
2022/03/14 09:25:07;;;;;;;10.10;3.40;;;8.80;83.00;;;;;;5027197;28;20503;-94
2022/03/14 09:27:34;;;;;;;9.60;3.38;;;8.90;82.90;;;;;;5029620;28;20046;-93
2022/03/14 09:30:01;;;;;;;9.52;3.20;;;8.90;82.80;;;;;;5015860;28;20100;-92
2022/03/14 09:32:28;;;;;;;11.68;2.63;;;8.90;82.80;;;;;;5027905;28;20057;-93
2022/03/14 09:34:55;;;;;;;10.43;3.85;;;9.00;82.70;;;;;;5020786;28;20046;-93
2022/03/14 09:37:22;;;;;;;10.07;2.83;;;9.10;82.70;;;;;;5022271;28;20568;-93
2022/03/14 09:39:49;;;;;;;8.38;2.75;;;9.20;82.70;;;;;;5016126;28;20041;-93
2022/03/14 09:42:17;;;;;;;8.82;2.85;;;9.30;82.70;;;;;;5015943;28;20053;-93
2022/03/14 09:44:53;;;;;;;8.80;3.03;;;9.40;82.60;;;;;;5014844;28;20049;-93
2022/03/14 09:47:23;;;;;;;10.13;2.80;;;9.40;82.50;;;;;;5032065;28;20045;-94
2022/03/14 09:49:57;;;;;;;10.20;2.70;;;9.50;82.40;;;;;;5026250;28;20056;-92
2022/03/14 09:52:25;;;;;;;12.38;3.08;;;9.60;82.40;;;;;;5027301;28;20099;-93
2022/03/14 09:54:52;;;;;;;7.45;2.40;;;9.70;82.20;;;;;;5026161;28;20506;-91
2022/03/14 09:57:19;;;;;;;13.55;2.70;;;9.90;82.10;;;;;;5014235;28;20045;-92
2022/03/14 09:59:47;;;;;;;14.82;3.80;;;10.00;82.00;;;;;;5017690;28;20046;-95
2022/03/14 10:02:14;;;;;;;11.55;3.05;;;10.10;81.80;;;;;;5026712;28;20539;-90
2022/03/14 10:04:41;;;;;;;11.85;2.78;;;10.20;81.60;;;;;;5021759;28;20483;-92
2022/03/14 10:07:08;;;;;;;9.70;2.78;;;10.30;81.50;;;;;;5016136;28;20049;-91
2022/03/14 10:09:36;;;;;;;13.82;2.60;;;10.40;81.30;;;;;;5031382;28;20522;-93
2022/03/14 10:12:04;;;;;;;9.77;2.85;;;10.50;81.20;;;;;;5014482;28;20104;-90
2022/03/14 10:14:32;;;;;;;11.25;2.60;;;10.70;81.00;;;;;;5028335;28;20083;-90
2022/03/14 10:17:00;;;;;;;11.05;2.75;;;10.80;80.80;;;;;;5018754;28;20491;-91
2022/03/14 10:19:34;;;;;;;12.80;2.80;;;10.90;80.70;;;;;;5020192;28;20050;-93
2022/03/14 10:22:18;;;;;;;;;;;11.00;80.50;;;;;;5027547;28;20053;-92
2022/03/14 10:24:46;;;;;;;14.80;3.50;;;11.10;80.30;;;;;;5016841;28;19943;-92
2022/03/14 10:27:20;;;;;;;13.43;2.72;;;11.30;80.10;;;;;;5014981;28;20513;-92
2022/03/14 10:29:48;;;;;;;10.98;2.50;;;11.30;79.80;;;;;;5028298;28;20061;-90
2022/03/14 10:32:31;;;;;;;19.60;3.05;;;11.40;79.60;;;;;;5012514;28;20042;-92
2022/03/14 10:35:08;;;;;;;18.25;3.40;;;11.60;79.30;;;;;;5017035;28;20089;-91
2022/03/14 10:37:36;;;;;;;12.00;2.60;;;11.60;79.10;;;;;;5023082;28;20457;-92
2022/03/14 10:40:06;;;;;;;12.02;2.60;;;11.80;78.80;;;;;;5028612;28;20061;-90
2022/03/14 10:42:40;;;;;;;17.67;3.15;;;11.90;78.60;;;;;;5014822;28;20049;-92
2022/03/14 10:45:30;;;;;;;17.40;3.28;;;11.90;78.30;;;;;;5013963;28;20058;-91
2022/03/14 10:47:58;;;;;;;12.18;2.70;;;12.10;78.00;;;;;;5027899;28;20051;-93
2022/03/14 10:50:38;;;;;;;14.73;2.92;;;12.20;77.80;;;;;;5016850;28;20112;-92
2022/03/14 10:53:16;;;;;;;14.75;2.83;;;12.30;77.60;;;;;;5023257;28;20053;-91
2022/03/14 10:55:46;;;;;;;12.68;2.80;;;12.40;77.20;;;;;;5020615;28;20050;-92
2022/03/14 10:58:24;;;;;;;17.88;3.20;;;12.50;76.90;;;;;;5016636;28;20526;-89
2022/03/14 11:00:56;;;;;;;9.32;2.67;;;12.50;76.60;;;;;;5049705;28;20573;-90
2022/03/14 11:03:31;;;;;;;11.95;3.10;;;12.50;76.30;;;;;;5031930;28;20061;-88
2022/03/14 11:06:09;;;;;;;15.35;3.20;;;12.60;76.10;;;;;;5018245;28;20054;-88
2022/03/14 11:08:37;;;;;;;9.93;3.35;;;12.60;75.90;;;;;;5035988;28;20112;-88
2022/03/14 11:11:10;;;;;;;16.30;3.30;;;12.70;75.80;;;;;;5020671;28;20512;-88
2022/03/14 11:13:38;;;;;;;17.23;3.10;;;12.70;75.60;;;;;;5020519;28;20050;-88
2022/03/14 11:16:11;;;;;;;14.05;2.97;;;12.80;75.30;;;;;;5020526;28;20076;-89
2022/03/14 11:18:38;;;;;;;11.27;3.10;;;12.80;75.00;;;;;;5017926;28;20054;-89
2022/03/14 11:21:08;;;;;;;15.43;2.78;;;12.80;74.80;;;;;;5031666;28;20053;-88
2022/03/14 11:23:36;;;;;;;16.45;3.60;;;12.80;74.60;;;;;;5020242;28;20054;-89
2022/03/14 11:26:03;;;;;;;12.88;2.80;;;12.90;74.50;;;;;;5020134;28;20050;-88
2022/03/14 11:28:34;;;;;;;11.25;2.83;;;12.90;74.30;;;;;;5019969;28;20042;-88
2022/03/14 11:31:02;;;;;;;12.13;2.70;;;12.90;74.30;;;;;;5019972;28;20461;-89
2022/03/14 11:33:31;;;;;;;13.32;2.60;;;12.90;74.30;;;;;;5017391;28;20092;-88
2022/03/14 11:36:00;;;;;;;14.30;2.53;;;12.90;74.20;;;;;;5017436;28;20049;-89
2022/03/14 11:38:28;;;;;;;8.70;2.58;;;12.90;74.20;;;;;;5030699;28;20053;-88
2022/03/14 11:40:56;;;;;;;16.55;2.95;;;13.00;74.10;;;;;;5022435;28;20041;-89
2022/03/14 11:43:24;;;;;;;7.70;2.05;;;13.10;73.90;;;;;;5020047;28;20050;-88
2022/03/14 11:45:52;;;;;;;7.32;2.05;;;13.10;73.80;;;;;;5017399;28;20046;-88
2022/03/14 11:48:21;;;;;;;10.13;2.60;;;13.20;73.70;;;;;;5030779;28;20506;-88
2022/03/14 11:51:03;;;;;;;15.40;3.33;;;13.30;73.60;;;;;;5017521;28;20050;-89
2022/03/14 11:53:32;;;;;;;11.30;2.88;;;13.30;73.50;;;;;;5019830;28;20046;-89
2022/03/14 11:56:07;;;;;;;10.00;2.10;;;13.40;73.40;;;;;;5019700;28;20058;-88
2022/03/14 11:58:49;;;;;;;7.60;2.13;;;13.40;73.30;;;;;;5019653;28;20099;-88
2022/03/14 12:01:20;;;;;;;9.30;2.20;;;13.50;73.10;;;;;;5051365;28;20046;-88
2022/03/14 12:03:56;;;;;;;9.30;2.25;;;13.60;72.90;;;;;;5019064;28;20111;-88
2022/03/14 12:06:46;;;;;;;6.60;1.90;;;13.70;72.70;;;;;;5016764;28;20047;-88
2022/03/14 12:09:34;;;;;;;12.15;2.13;;;13.90;72.30;;;;;;5031139;28;20099;-87
2022/03/14 12:12:24;;;;;;;7.18;1.83;;;13.90;71.90;;;;;;5011410;28;20494;-88
2022/03/14 12:15:02;;;;;;;7.07;1.83;;;13.90;71.50;;;;;;5014257;28;20049;-87
2022/03/14 12:17:31;;;;;;;7.95;2.53;;;14.00;71.10;;;;;;5032505;28;20453;-86
2022/03/14 12:20:03;;;;;;;7.22;1.95;;;14.10;70.90;;;;;;5030837;28;20060;-87
2022/03/14 12:22:30;;;;;;;9.50;2.00;;;14.10;70.70;;;;;;5015594;28;20446;-86
2022/03/14 12:24:59;;;;;;;7.53;2.03;;;14.20;70.40;;;;;;5027811;28;20453;-87
2022/03/14 12:27:29;;;;;;;6.97;1.60;;;14.20;70.10;;;;;;5030931;28;20042;-86
2022/03/14 12:29:58;;;;;;;6.97;1.70;;;14.30;69.90;;;;;;5030957;28;20053;-86
2022/03/14 12:32:38;;;;;;;8.55;2.15;;;14.30;69.70;;;;;;5031738;28;20042;-87
2022/03/14 12:35:10;;;;;;;7.20;2.00;;;14.40;69.40;;;;;;5014293;28;20076;-87
2022/03/14 12:37:50;;;;;;;6.43;1.63;;;14.40;69.20;;;;;;5024507;28;20522;-86
2022/03/14 12:40:20;;;;;;;9.73;2.13;;;14.40;69.00;;;;;;5022958;28;20510;-87
2022/03/14 12:42:48;;;;;;;11.13;1.92;;;14.50;68.70;;;;;;5030886;28;20049;-87
2022/03/14 12:45:20;;;;;;;10.13;2.25;;;14.60;68.50;;;;;;4998961;28;20103;-87
2022/03/14 12:47:57;;;;;;;9.57;1.88;;;14.60;68.00;;;;;;5030048;28;20045;-87
2022/03/14 12:50:42;;;;;;;7.35;1.50;;;14.70;67.60;;;;;;5028898;28;20053;-87
2022/03/14 12:53:15;;;;;;;9.95;1.90;;;14.70;67.40;;;;;;5019182;28;20108;-86
2022/03/14 12:55:47;;;;;;;7.95;2.00;;;14.70;67.30;;;;;;5018699;28;20049;-88
2022/03/14 12:58:20;;;;;;;9.52;2.45;;;14.70;67.10;;;;;;5018384;28;20045;-87